sensor_id;sensor_type;location;lat;lon;timestamp;P1;durP1;ratioP1;P2;durP2;ratioP2
61096;SDS011;46977;50.936;6.908;2023-08-17T00:02:18;17.30;;;10.10;;
61096;SDS011;46977;50.936;6.908;2023-08-17T00:05:20;21.10;;;10.85;;
61096;SDS011;46977;50.936;6.908;2023-08-17T00:08:23;16.50;;;9.60;;
61096;SDS011;46977;50.936;6.908;2023-08-17T00:11:26;16.88;;;9.93;;
61096;SDS011;46977;50.936;6.908;2023-08-17T00:14:28;17.92;;;10.35;;
61096;SDS011;46977;50.936;6.908;2023-08-17T00:17:31;15.10;;;9.38;;
61096;SDS011;46977;50.936;6.908;2023-08-17T00:20:34;16.85;;;9.65;;
61096;SDS011;46977;50.936;6.908;2023-08-17T00:23:36;19.80;;;9.90;;
61096;SDS011;46977;50.936;6.908;2023-08-17T00:26:39;22.35;;;10.07;;
61096;SDS011;46977;50.936;6.908;2023-08-17T00:29:41;21.42;;;11.32;;
61096;SDS011;46977;50.936;6.908;2023-08-17T00:32:44;18.60;;;10.27;;
61096;SDS011;46977;50.936;6.908;2023-08-17T00:35:46;19.40;;;9.98;;
61096;SDS011;46977;50.936;6.908;2023-08-17T00:38:48;20.33;;;10.00;;
61096;SDS011;46977;50.936;6.908;2023-08-17T00:41:52;18.20;;;9.95;;
61096;SDS011;46977;50.936;6.908;2023-08-17T00:44:54;21.48;;;9.85;;
61096;SDS011;46977;50.936;6.908;2023-08-17T00:47:57;13.90;;;8.93;;
61096;SDS011;46977;50.936;6.908;2023-08-17T00:51:00;17.52;;;9.52;;
61096;SDS011;46977;50.936;6.908;2023-08-17T00:54:04;18.85;;;9.57;;
61096;SDS011;46977;50.936;6.908;2023-08-17T00:57:09;20.88;;;10.57;;
61096;SDS011;46977;50.936;6.908;2023-08-17T01:00:12;18.48;;;9.48;;
61096;SDS011;46977;50.936;6.908;2023-08-17T01:03:18;19.98;;;9.65;;
61096;SDS011;46977;50.936;6.908;2023-08-17T01:06:22;16.75;;;9.57;;
61096;SDS011;46977;50.936;6.908;2023-08-17T01:09:25;18.17;;;9.90;;
61096;SDS011;46977;50.936;6.908;2023-08-17T01:12:30;15.50;;;9.23;;
61096;SDS011;46977;50.936;6.908;2023-08-17T01:15:35;14.80;;;8.77;;
61096;SDS011;46977;50.936;6.908;2023-08-17T01:18:39;14.55;;;8.73;;
61096;SDS011;46977;50.936;6.908;2023-08-17T01:21:44;13.45;;;8.93;;
61096;SDS011;46977;50.936;6.908;2023-08-17T01:24:55;18.67;;;9.82;;
61096;SDS011;46977;50.936;6.908;2023-08-17T01:28:00;18.13;;;9.90;;
61096;SDS011;46977;50.936;6.908;2023-08-17T01:31:03;15.82;;;9.48;;
61096;SDS011;46977;50.936;6.908;2023-08-17T01:34:09;14.73;;;7.93;;
61096;SDS011;46977;50.936;6.908;2023-08-17T01:37:15;17.08;;;9.43;;
61096;SDS011;46977;50.936;6.908;2023-08-17T01:40:21;20.55;;;9.93;;
61096;SDS011;46977;50.936;6.908;2023-08-17T01:43:24;20.05;;;9.93;;
61096;SDS011;46977;50.936;6.908;2023-08-17T01:46:29;18.63;;;10.27;;
61096;SDS011;46977;50.936;6.908;2023-08-17T01:49:34;15.85;;;10.63;;
61096;SDS011;46977;50.936;6.908;2023-08-17T01:52:36;19.25;;;10.30;;
61096;SDS011;46977;50.936;6.908;2023-08-17T01:55:40;12.98;;;8.40;;
61096;SDS011;46977;50.936;6.908;2023-08-17T01:58:42;15.93;;;10.02;;
61096;SDS011;46977;50.936;6.908;2023-08-17T02:01:45;15.07;;;9.45;;
61096;SDS011;46977;50.936;6.908;2023-08-17T02:04:48;15.48;;;8.93;;
61096;SDS011;46977;50.936;6.908;2023-08-17T02:07:51;16.17;;;9.85;;
61096;SDS011;46977;50.936;6.908;2023-08-17T02:10:55;15.60;;;10.73;;
61096;SDS011;46977;50.936;6.908;2023-08-17T02:13:57;16.23;;;9.85;;
61096;SDS011;46977;50.936;6.908;2023-08-17T02:17:00;20.45;;;11.00;;
61096;SDS011;46977;50.936;6.908;2023-08-17T02:20:02;17.40;;;10.90;;
61096;SDS011;46977;50.936;6.908;2023-08-17T02:23:06;14.75;;;10.20;;
61096;SDS011;46977;50.936;6.908;2023-08-17T02:26:10;16.77;;;9.60;;
61096;SDS011;46977;50.936;6.908;2023-08-17T02:29:12;21.40;;;10.45;;
61096;SDS011;46977;50.936;6.908;2023-08-17T02:32:14;14.20;;;9.23;;
61096;SDS011;46977;50.936;6.908;2023-08-17T02:35:17;19.67;;;10.75;;
61096;SDS011;46977;50.936;6.908;2023-08-17T02:38:19;17.10;;;9.95;;
61096;SDS011;46977;50.936;6.908;2023-08-17T02:41:23;16.40;;;10.35;;
61096;SDS011;46977;50.936;6.908;2023-08-17T02:44:25;17.13;;;9.50;;
61096;SDS011;46977;50.936;6.908;2023-08-17T02:47:29;17.33;;;10.85;;
61096;SDS011;46977;50.936;6.908;2023-08-17T02:50:31;15.80;;;9.50;;
61096;SDS011;46977;50.936;6.908;2023-08-17T02:53:34;14.88;;;8.90;;
61096;SDS011;46977;50.936;6.908;2023-08-17T02:56:37;12.65;;;9.50;;
61096;SDS011;46977;50.936;6.908;2023-08-17T02:59:40;17.30;;;10.45;;
61096;SDS011;46977;50.936;6.908;2023-08-17T03:02:42;13.90;;;8.93;;
61096;SDS011;46977;50.936;6.908;2023-08-17T03:05:44;14.88;;;9.27;;
61096;SDS011;46977;50.936;6.908;2023-08-17T03:08:47;13.75;;;9.55;;
61096;SDS011;46977;50.936;6.908;2023-08-17T03:11:50;13.50;;;9.40;;
61096;SDS011;46977;50.936;6.908;2023-08-17T03:14:53;17.75;;;9.55;;
61096;SDS011;46977;50.936;6.908;2023-08-17T03:17:55;13.45;;;8.65;;
61096;SDS011;46977;50.936;6.908;2023-08-17T03:20:58;12.60;;;8.30;;
61096;SDS011;46977;50.936;6.908;2023-08-17T03:24:00;13.85;;;7.97;;
61096;SDS011;46977;50.936;6.908;2023-08-17T03:27:04;16.60;;;9.10;;
61096;SDS011;46977;50.936;6.908;2023-08-17T03:30:07;18.23;;;8.98;;
61096;SDS011;46977;50.936;6.908;2023-08-17T03:33:09;13.65;;;8.32;;
61096;SDS011;46977;50.936;6.908;2023-08-17T03:36:12;20.75;;;10.50;;
61096;SDS011;46977;50.936;6.908;2023-08-17T03:39:14;13.43;;;8.80;;
61096;SDS011;46977;50.936;6.908;2023-08-17T03:42:18;15.48;;;9.57;;
61096;SDS011;46977;50.936;6.908;2023-08-17T03:45:20;14.75;;;10.13;;
61096;SDS011;46977;50.936;6.908;2023-08-17T03:48:25;15.75;;;9.80;;
61096;SDS011;46977;50.936;6.908;2023-08-17T03:51:27;14.30;;;9.77;;
61096;SDS011;46977;50.936;6.908;2023-08-17T03:54:30;11.68;;;8.93;;
61096;SDS011;46977;50.936;6.908;2023-08-17T03:57:34;16.00;;;10.13;;
61096;SDS011;46977;50.936;6.908;2023-08-17T04:00:40;25.52;;;12.48;;
61096;SDS011;46977;50.936;6.908;2023-08-17T04:03:43;19.83;;;12.52;;
61096;SDS011;46977;50.936;6.908;2023-08-17T04:06:45;19.48;;;13.07;;
61096;SDS011;46977;50.936;6.908;2023-08-17T04:09:47;22.65;;;12.75;;
61096;SDS011;46977;50.936;6.908;2023-08-17T04:12:51;20.33;;;13.07;;
61096;SDS011;46977;50.936;6.908;2023-08-17T04:15:54;23.85;;;13.18;;
61096;SDS011;46977;50.936;6.908;2023-08-17T04:18:56;17.23;;;11.85;;
61096;SDS011;46977;50.936;6.908;2023-08-17T04:21:58;20.15;;;13.57;;
61096;SDS011;46977;50.936;6.908;2023-08-17T04:25:01;19.65;;;12.73;;
61096;SDS011;46977;50.936;6.908;2023-08-17T04:28:05;18.50;;;12.50;;
61096;SDS011;46977;50.936;6.908;2023-08-17T04:31:09;17.92;;;13.02;;
61096;SDS011;46977;50.936;6.908;2023-08-17T04:34:14;19.10;;;12.27;;
61096;SDS011;46977;50.936;6.908;2023-08-17T04:37:16;17.77;;;11.98;;
61096;SDS011;46977;50.936;6.908;2023-08-17T04:40:19;19.85;;;13.20;;
61096;SDS011;46977;50.936;6.908;2023-08-17T04:43:24;17.33;;;11.82;;
61096;SDS011;46977;50.936;6.908;2023-08-17T04:46:26;17.33;;;11.60;;
61096;SDS011;46977;50.936;6.908;2023-08-17T04:49:29;23.23;;;13.00;;
61096;SDS011;46977;50.936;6.908;2023-08-17T04:52:31;21.52;;;12.20;;
61096;SDS011;46977;50.936;6.908;2023-08-17T04:55:34;26.60;;;13.07;;
61096;SDS011;46977;50.936;6.908;2023-08-17T04:58:37;20.83;;;12.48;;
61096;SDS011;46977;50.936;6.908;2023-08-17T05:01:40;23.15;;;12.80;;
61096;SDS011;46977;50.936;6.908;2023-08-17T05:04:45;17.90;;;11.98;;
61096;SDS011;46977;50.936;6.908;2023-08-17T05:07:49;20.45;;;12.35;;
61096;SDS011;46977;50.936;6.908;2023-08-17T05:10:52;17.92;;;11.35;;
61096;SDS011;46977;50.936;6.908;2023-08-17T05:14:00;19.38;;;12.70;;
61096;SDS011;46977;50.936;6.908;2023-08-17T05:17:03;23.67;;;10.68;;
61096;SDS011;46977;50.936;6.908;2023-08-17T05:20:06;20.42;;;11.57;;
61096;SDS011;46977;50.936;6.908;2023-08-17T05:23:10;19.80;;;11.20;;
61096;SDS011;46977;50.936;6.908;2023-08-17T05:26:13;24.17;;;12.00;;
61096;SDS011;46977;50.936;6.908;2023-08-17T05:29:19;15.95;;;10.13;;
61096;SDS011;46977;50.936;6.908;2023-08-17T05:32:22;22.58;;;11.75;;
61096;SDS011;46977;50.936;6.908;2023-08-17T05:35:26;18.52;;;12.13;;
61096;SDS011;46977;50.936;6.908;2023-08-17T05:38:29;21.52;;;11.95;;
61096;SDS011;46977;50.936;6.908;2023-08-17T05:41:32;22.63;;;13.20;;
61096;SDS011;46977;50.936;6.908;2023-08-17T05:44:36;22.58;;;12.45;;
61096;SDS011;46977;50.936;6.908;2023-08-17T05:47:38;20.35;;;11.77;;
61096;SDS011;46977;50.936;6.908;2023-08-17T05:50:40;22.33;;;12.48;;
61096;SDS011;46977;50.936;6.908;2023-08-17T05:53:43;20.73;;;12.07;;
61096;SDS011;46977;50.936;6.908;2023-08-17T05:56:45;20.08;;;11.05;;
61096;SDS011;46977;50.936;6.908;2023-08-17T05:59:50;19.90;;;11.18;;
61096;SDS011;46977;50.936;6.908;2023-08-17T06:02:52;19.85;;;12.10;;
61096;SDS011;46977;50.936;6.908;2023-08-17T06:05:57;22.55;;;12.40;;
61096;SDS011;46977;50.936;6.908;2023-08-17T06:08:59;20.75;;;12.10;;
61096;SDS011;46977;50.936;6.908;2023-08-17T06:12:02;18.85;;;12.32;;
61096;SDS011;46977;50.936;6.908;2023-08-17T06:15:07;19.85;;;11.55;;
61096;SDS011;46977;50.936;6.908;2023-08-17T06:18:10;25.50;;;12.00;;
61096;SDS011;46977;50.936;6.908;2023-08-17T06:21:12;19.33;;;12.07;;
61096;SDS011;46977;50.936;6.908;2023-08-17T06:24:14;22.58;;;11.82;;
61096;SDS011;46977;50.936;6.908;2023-08-17T06:27:18;20.77;;;12.00;;
61096;SDS011;46977;50.936;6.908;2023-08-17T06:30:23;21.73;;;12.82;;
61096;SDS011;46977;50.936;6.908;2023-08-17T06:33:26;22.52;;;12.75;;
61096;SDS011;46977;50.936;6.908;2023-08-17T06:36:30;27.30;;;13.90;;
61096;SDS011;46977;50.936;6.908;2023-08-17T06:39:34;21.40;;;11.45;;
61096;SDS011;46977;50.936;6.908;2023-08-17T06:42:36;20.92;;;11.48;;
61096;SDS011;46977;50.936;6.908;2023-08-17T06:45:40;25.70;;;13.10;;
61096;SDS011;46977;50.936;6.908;2023-08-17T06:48:42;25.95;;;12.65;;
61096;SDS011;46977;50.936;6.908;2023-08-17T06:51:45;22.17;;;12.88;;
61096;SDS011;46977;50.936;6.908;2023-08-17T06:54:50;28.35;;;13.23;;
61096;SDS011;46977;50.936;6.908;2023-08-17T06:57:54;24.60;;;13.18;;
61096;SDS011;46977;50.936;6.908;2023-08-17T07:00:58;25.42;;;13.40;;
61096;SDS011;46977;50.936;6.908;2023-08-17T07:04:01;29.35;;;15.07;;
61096;SDS011;46977;50.936;6.908;2023-08-17T07:07:04;22.80;;;12.93;;
61096;SDS011;46977;50.936;6.908;2023-08-17T07:10:06;23.38;;;13.65;;
61096;SDS011;46977;50.936;6.908;2023-08-17T07:13:09;26.02;;;13.25;;
61096;SDS011;46977;50.936;6.908;2023-08-17T07:16:13;19.63;;;11.68;;
61096;SDS011;46977;50.936;6.908;2023-08-17T07:19:16;26.52;;;14.88;;
61096;SDS011;46977;50.936;6.908;2023-08-17T07:22:18;29.13;;;15.23;;
61096;SDS011;46977;50.936;6.908;2023-08-17T07:25:20;27.83;;;13.68;;
61096;SDS011;46977;50.936;6.908;2023-08-17T07:28:23;23.00;;;12.32;;
61096;SDS011;46977;50.936;6.908;2023-08-17T07:31:26;23.80;;;13.27;;
61096;SDS011;46977;50.936;6.908;2023-08-17T07:34:31;26.70;;;13.68;;
61096;SDS011;46977;50.936;6.908;2023-08-17T07:37:33;27.88;;;14.05;;
61096;SDS011;46977;50.936;6.908;2023-08-17T07:40:36;30.23;;;15.90;;
61096;SDS011;46977;50.936;6.908;2023-08-17T07:43:38;30.23;;;14.63;;
61096;SDS011;46977;50.936;6.908;2023-08-17T07:46:42;28.85;;;14.15;;
61096;SDS011;46977;50.936;6.908;2023-08-17T07:49:44;30.23;;;13.82;;
61096;SDS011;46977;50.936;6.908;2023-08-17T07:52:48;31.80;;;16.13;;
61096;SDS011;46977;50.936;6.908;2023-08-17T07:55:50;27.13;;;13.18;;
61096;SDS011;46977;50.936;6.908;2023-08-17T07:58:56;31.67;;;14.23;;
61096;SDS011;46977;50.936;6.908;2023-08-17T08:02:00;26.40;;;13.95;;
61096;SDS011;46977;50.936;6.908;2023-08-17T08:05:03;28.08;;;15.05;;
61096;SDS011;46977;50.936;6.908;2023-08-17T08:08:06;30.55;;;15.00;;
61096;SDS011;46977;50.936;6.908;2023-08-17T08:11:09;29.98;;;15.10;;
61096;SDS011;46977;50.936;6.908;2023-08-17T08:14:11;37.42;;;16.48;;
61096;SDS011;46977;50.936;6.908;2023-08-17T08:17:15;35.70;;;17.33;;
61096;SDS011;46977;50.936;6.908;2023-08-17T08:20:17;34.42;;;16.02;;
61096;SDS011;46977;50.936;6.908;2023-08-17T08:23:20;36.20;;;18.52;;
61096;SDS011;46977;50.936;6.908;2023-08-17T08:26:22;32.47;;;14.73;;
61096;SDS011;46977;50.936;6.908;2023-08-17T08:29:24;28.90;;;14.68;;
61096;SDS011;46977;50.936;6.908;2023-08-17T08:32:28;38.35;;;15.75;;
61096;SDS011;46977;50.936;6.908;2023-08-17T08:35:31;35.20;;;16.73;;
61096;SDS011;46977;50.936;6.908;2023-08-17T08:38:34;33.85;;;15.43;;
61096;SDS011;46977;50.936;6.908;2023-08-17T08:41:36;35.80;;;16.63;;
61096;SDS011;46977;50.936;6.908;2023-08-17T08:44:40;35.20;;;16.25;;
61096;SDS011;46977;50.936;6.908;2023-08-17T08:47:43;43.70;;;19.45;;
61096;SDS011;46977;50.936;6.908;2023-08-17T08:50:46;35.22;;;15.93;;
61096;SDS011;46977;50.936;6.908;2023-08-17T08:53:52;33.80;;;14.43;;
61096;SDS011;46977;50.936;6.908;2023-08-17T08:57:01;42.88;;;20.73;;
61096;SDS011;46977;50.936;6.908;2023-08-17T09:00:06;36.92;;;18.83;;
61096;SDS011;46977;50.936;6.908;2023-08-17T09:03:11;44.10;;;22.58;;
61096;SDS011;46977;50.936;6.908;2023-08-17T09:06:14;48.33;;;22.67;;
61096;SDS011;46977;50.936;6.908;2023-08-17T09:09:16;49.78;;;23.42;;
61096;SDS011;46977;50.936;6.908;2023-08-17T09:12:20;46.17;;;23.27;;
61096;SDS011;46977;50.936;6.908;2023-08-17T09:15:38;47.03;;;23.38;;
61096;SDS011;46977;50.936;6.908;2023-08-17T09:18:42;47.20;;;22.85;;
61096;SDS011;46977;50.936;6.908;2023-08-17T09:21:44;48.80;;;24.95;;
61096;SDS011;46977;50.936;6.908;2023-08-17T09:24:52;42.08;;;23.17;;
61096;SDS011;46977;50.936;6.908;2023-08-17T09:27:54;49.65;;;22.05;;
61096;SDS011;46977;50.936;6.908;2023-08-17T09:31:00;59.05;;;26.33;;
61096;SDS011;46977;50.936;6.908;2023-08-17T09:34:06;58.25;;;25.45;;
61096;SDS011;46977;50.936;6.908;2023-08-17T09:37:10;51.25;;;25.83;;
61096;SDS011;46977;50.936;6.908;2023-08-17T09:40:14;54.03;;;26.05;;
61096;SDS011;46977;50.936;6.908;2023-08-17T09:43:16;58.00;;;28.25;;
61096;SDS011;46977;50.936;6.908;2023-08-17T09:46:20;59.28;;;26.08;;
61096;SDS011;46977;50.936;6.908;2023-08-17T09:49:24;48.10;;;22.52;;
61096;SDS011;46977;50.936;6.908;2023-08-17T09:52:26;49.80;;;23.92;;
61096;SDS011;46977;50.936;6.908;2023-08-17T09:55:30;44.72;;;22.70;;
61096;SDS011;46977;50.936;6.908;2023-08-17T09:58:34;42.58;;;22.60;;
61096;SDS011;46977;50.936;6.908;2023-08-17T10:01:37;48.20;;;22.65;;
61096;SDS011;46977;50.936;6.908;2023-08-17T10:04:41;41.92;;;21.60;;
61096;SDS011;46977;50.936;6.908;2023-08-17T10:07:45;42.92;;;21.38;;
61096;SDS011;46977;50.936;6.908;2023-08-17T10:10:50;40.53;;;19.88;;
61096;SDS011;46977;50.936;6.908;2023-08-17T10:14:00;49.42;;;23.08;;
61096;SDS011;46977;50.936;6.908;2023-08-17T10:17:06;46.63;;;23.75;;
61096;SDS011;46977;50.936;6.908;2023-08-17T10:20:16;41.60;;;22.35;;
61096;SDS011;46977;50.936;6.908;2023-08-17T10:23:20;46.28;;;22.27;;
61096;SDS011;46977;50.936;6.908;2023-08-17T10:26:24;42.55;;;21.33;;
61096;SDS011;46977;50.936;6.908;2023-08-17T10:29:27;46.60;;;20.25;;
61096;SDS011;46977;50.936;6.908;2023-08-17T10:32:30;39.00;;;20.75;;
61096;SDS011;46977;50.936;6.908;2023-08-17T10:35:34;41.80;;;20.38;;
61096;SDS011;46977;50.936;6.908;2023-08-17T10:38:38;41.25;;;21.25;;
61096;SDS011;46977;50.936;6.908;2023-08-17T10:41:45;36.30;;;18.85;;
61096;SDS011;46977;50.936;6.908;2023-08-17T10:44:48;41.83;;;21.55;;
61096;SDS011;46977;50.936;6.908;2023-08-17T10:47:50;44.13;;;23.20;;
61096;SDS011;46977;50.936;6.908;2023-08-17T10:51:04;37.17;;;21.17;;
61096;SDS011;46977;50.936;6.908;2023-08-17T10:54:07;41.38;;;23.05;;
61096;SDS011;46977;50.936;6.908;2023-08-17T10:57:30;63.40;;;36.55;;
61096;SDS011;46977;50.936;6.908;2023-08-17T11:00:33;40.78;;;24.20;;
61096;SDS011;46977;50.936;6.908;2023-08-17T11:03:38;51.97;;;25.88;;
61096;SDS011;46977;50.936;6.908;2023-08-17T11:06:43;42.85;;;22.45;;
61096;SDS011;46977;50.936;6.908;2023-08-17T11:09:46;44.20;;;21.85;;
61096;SDS011;46977;50.936;6.908;2023-08-17T11:12:49;47.72;;;24.13;;
61096;SDS011;46977;50.936;6.908;2023-08-17T11:15:54;38.53;;;21.88;;
61096;SDS011;46977;50.936;6.908;2023-08-17T11:18:57;42.50;;;21.75;;
61096;SDS011;46977;50.936;6.908;2023-08-17T11:22:02;42.95;;;24.75;;
61096;SDS011;46977;50.936;6.908;2023-08-17T11:25:05;46.13;;;23.80;;
61096;SDS011;46977;50.936;6.908;2023-08-17T11:28:09;47.38;;;24.05;;
61096;SDS011;46977;50.936;6.908;2023-08-17T11:31:12;41.15;;;22.70;;
61096;SDS011;46977;50.936;6.908;2023-08-17T11:34:15;46.85;;;23.75;;
61096;SDS011;46977;50.936;6.908;2023-08-17T11:37:19;42.17;;;22.88;;
61096;SDS011;46977;50.936;6.908;2023-08-17T11:40:25;37.70;;;21.95;;
61096;SDS011;46977;50.936;6.908;2023-08-17T11:43:28;40.25;;;22.13;;
61096;SDS011;46977;50.936;6.908;2023-08-17T11:46:31;40.65;;;21.40;;
61096;SDS011;46977;50.936;6.908;2023-08-17T11:49:34;34.35;;;20.40;;
61096;SDS011;46977;50.936;6.908;2023-08-17T11:52:41;37.08;;;17.55;;
61096;SDS011;46977;50.936;6.908;2023-08-17T11:55:47;32.35;;;18.35;;
61096;SDS011;46977;50.936;6.908;2023-08-17T11:58:59;33.45;;;17.75;;
61096;SDS011;46977;50.936;6.908;2023-08-17T12:02:10;33.83;;;18.67;;
61096;SDS011;46977;50.936;6.908;2023-08-17T12:05:12;36.55;;;19.02;;
61096;SDS011;46977;50.936;6.908;2023-08-17T12:08:16;32.30;;;17.85;;
61096;SDS011;46977;50.936;6.908;2023-08-17T12:11:19;32.38;;;18.30;;
61096;SDS011;46977;50.936;6.908;2023-08-17T12:14:26;36.08;;;19.33;;
61096;SDS011;46977;50.936;6.908;2023-08-17T12:17:28;32.03;;;18.27;;
61096;SDS011;46977;50.936;6.908;2023-08-17T12:20:33;32.55;;;18.65;;
61096;SDS011;46977;50.936;6.908;2023-08-17T12:23:40;31.95;;;18.85;;
61096;SDS011;46977;50.936;6.908;2023-08-17T12:26:44;33.63;;;17.38;;
61096;SDS011;46977;50.936;6.908;2023-08-17T12:29:46;29.27;;;16.33;;
61096;SDS011;46977;50.936;6.908;2023-08-17T12:32:49;28.05;;;16.98;;
61096;SDS011;46977;50.936;6.908;2023-08-17T12:35:51;29.02;;;17.23;;
61096;SDS011;46977;50.936;6.908;2023-08-17T12:38:55;33.20;;;17.88;;
61096;SDS011;46977;50.936;6.908;2023-08-17T12:41:57;26.35;;;16.60;;
61096;SDS011;46977;50.936;6.908;2023-08-17T12:45:00;27.85;;;16.88;;
61096;SDS011;46977;50.936;6.908;2023-08-17T12:48:06;24.73;;;16.95;;
61096;SDS011;46977;50.936;6.908;2023-08-17T12:51:08;26.17;;;16.23;;
61096;SDS011;46977;50.936;6.908;2023-08-17T12:54:13;29.75;;;17.58;;
61096;SDS011;46977;50.936;6.908;2023-08-17T12:57:18;28.75;;;16.15;;
61096;SDS011;46977;50.936;6.908;2023-08-17T13:00:20;29.65;;;17.05;;
61096;SDS011;46977;50.936;6.908;2023-08-17T13:03:23;29.70;;;15.52;;
61096;SDS011;46977;50.936;6.908;2023-08-17T13:06:25;27.35;;;16.42;;
61096;SDS011;46977;50.936;6.908;2023-08-17T13:09:50;26.23;;;15.50;;
61096;SDS011;46977;50.936;6.908;2023-08-17T13:12:52;25.65;;;16.25;;
61096;SDS011;46977;50.936;6.908;2023-08-17T13:15:57;24.33;;;15.82;;
61096;SDS011;46977;50.936;6.908;2023-08-17T13:19:00;29.77;;;15.70;;
61096;SDS011;46977;50.936;6.908;2023-08-17T13:22:02;31.50;;;17.30;;
61096;SDS011;46977;50.936;6.908;2023-08-17T13:25:06;27.60;;;15.43;;
61096;SDS011;46977;50.936;6.908;2023-08-17T13:28:09;26.65;;;16.48;;
61096;SDS011;46977;50.936;6.908;2023-08-17T13:31:11;25.65;;;16.17;;
61096;SDS011;46977;50.936;6.908;2023-08-17T13:34:27;26.48;;;15.77;;
61096;SDS011;46977;50.936;6.908;2023-08-17T13:37:29;24.27;;;16.25;;
61096;SDS011;46977;50.936;6.908;2023-08-17T13:40:33;22.23;;;14.77;;
61096;SDS011;46977;50.936;6.908;2023-08-17T13:43:35;27.48;;;16.42;;
61096;SDS011;46977;50.936;6.908;2023-08-17T13:46:38;27.30;;;16.20;;
61096;SDS011;46977;50.936;6.908;2023-08-17T13:49:41;33.28;;;18.63;;
61096;SDS011;46977;50.936;6.908;2023-08-17T13:52:43;41.90;;;17.95;;
61096;SDS011;46977;50.936;6.908;2023-08-17T13:55:47;27.90;;;14.85;;
61096;SDS011;46977;50.936;6.908;2023-08-17T13:58:50;26.13;;;15.52;;
61096;SDS011;46977;50.936;6.908;2023-08-17T14:02:01;29.15;;;16.55;;
61096;SDS011;46977;50.936;6.908;2023-08-17T14:05:07;33.45;;;17.40;;
61096;SDS011;46977;50.936;6.908;2023-08-17T14:09:37;32.28;;;17.80;;
61096;SDS011;46977;50.936;6.908;2023-08-17T14:12:47;31.23;;;18.00;;
61096;SDS011;46977;50.936;6.908;2023-08-17T14:16:07;29.50;;;16.52;;
61096;SDS011;46977;50.936;6.908;2023-08-17T14:19:10;28.50;;;16.75;;
61096;SDS011;46977;50.936;6.908;2023-08-17T14:22:21;29.33;;;18.08;;
61096;SDS011;46977;50.936;6.908;2023-08-17T14:25:42;35.05;;;16.58;;
61096;SDS011;46977;50.936;6.908;2023-08-17T14:28:46;28.63;;;18.00;;
61096;SDS011;46977;50.936;6.908;2023-08-17T14:31:51;30.25;;;16.23;;
61096;SDS011;46977;50.936;6.908;2023-08-17T14:35:02;26.90;;;16.35;;
61096;SDS011;46977;50.936;6.908;2023-08-17T14:42:00;24.67;;;14.65;;
61096;SDS011;46977;50.936;6.908;2023-08-17T14:45:08;25.77;;;15.20;;
61096;SDS011;46977;50.936;6.908;2023-08-17T14:48:42;24.27;;;14.35;;
61096;SDS011;46977;50.936;6.908;2023-08-17T14:51:57;23.33;;;15.13;;
61096;SDS011;46977;50.936;6.908;2023-08-17T14:54:59;24.05;;;14.82;;
61096;SDS011;46977;50.936;6.908;2023-08-17T14:58:08;23.23;;;14.80;;
61096;SDS011;46977;50.936;6.908;2023-08-17T15:11:31;22.90;;;14.25;;
61096;SDS011;46977;50.936;6.908;2023-08-17T15:14:37;24.77;;;14.80;;
61096;SDS011;46977;50.936;6.908;2023-08-17T15:17:40;20.58;;;13.45;;
61096;SDS011;46977;50.936;6.908;2023-08-17T15:20:42;18.05;;;12.70;;
61096;SDS011;46977;50.936;6.908;2023-08-17T15:23:44;16.73;;;11.15;;
61096;SDS011;46977;50.936;6.908;2023-08-17T15:26:48;18.63;;;13.02;;
61096;SDS011;46977;50.936;6.908;2023-08-17T15:29:51;18.85;;;12.10;;
61096;SDS011;46977;50.936;6.908;2023-08-17T15:32:53;16.40;;;11.63;;
61096;SDS011;46977;50.936;6.908;2023-08-17T15:35:55;18.98;;;11.95;;
61096;SDS011;46977;50.936;6.908;2023-08-17T15:38:59;16.48;;;11.00;;
61096;SDS011;46977;50.936;6.908;2023-08-17T15:42:03;17.13;;;10.82;;
61096;SDS011;46977;50.936;6.908;2023-08-17T15:45:06;17.17;;;10.50;;
61096;SDS011;46977;50.936;6.908;2023-08-17T15:48:09;17.45;;;10.63;;
61096;SDS011;46977;50.936;6.908;2023-08-17T15:51:12;17.10;;;11.15;;
61096;SDS011;46977;50.936;6.908;2023-08-17T15:54:14;19.15;;;10.75;;
61096;SDS011;46977;50.936;6.908;2023-08-17T15:57:37;15.43;;;10.38;;
61096;SDS011;46977;50.936;6.908;2023-08-17T16:00:40;18.88;;;12.95;;
61096;SDS011;46977;50.936;6.908;2023-08-17T16:03:45;16.20;;;10.68;;
61096;SDS011;46977;50.936;6.908;2023-08-17T16:06:48;14.45;;;10.68;;
61096;SDS011;46977;50.936;6.908;2023-08-17T16:09:50;15.18;;;10.50;;
61096;SDS011;46977;50.936;6.908;2023-08-17T16:12:54;13.43;;;10.10;;
61096;SDS011;46977;50.936;6.908;2023-08-17T16:15:56;13.68;;;9.20;;
61096;SDS011;46977;50.936;6.908;2023-08-17T16:18:59;13.35;;;8.88;;
61096;SDS011;46977;50.936;6.908;2023-08-17T16:22:05;17.23;;;10.15;;
61096;SDS011;46977;50.936;6.908;2023-08-17T16:25:07;13.55;;;9.63;;
61096;SDS011;46977;50.936;6.908;2023-08-17T16:28:11;15.30;;;9.90;;
61096;SDS011;46977;50.936;6.908;2023-08-17T16:31:14;13.38;;;9.35;;
61096;SDS011;46977;50.936;6.908;2023-08-17T16:34:16;15.00;;;9.20;;
61096;SDS011;46977;50.936;6.908;2023-08-17T16:37:20;12.80;;;8.20;;
61096;SDS011;46977;50.936;6.908;2023-08-17T16:40:23;12.70;;;9.15;;
61096;SDS011;46977;50.936;6.908;2023-08-17T16:43:40;15.63;;;9.27;;
61096;SDS011;46977;50.936;6.908;2023-08-17T16:46:43;12.50;;;9.95;;
61096;SDS011;46977;50.936;6.908;2023-08-17T16:49:45;18.42;;;9.43;;
61096;SDS011;46977;50.936;6.908;2023-08-17T16:52:47;11.05;;;9.02;;
61096;SDS011;46977;50.936;6.908;2023-08-17T16:55:51;12.98;;;8.60;;
61096;SDS011;46977;50.936;6.908;2023-08-17T16:58:58;12.45;;;9.10;;
61096;SDS011;46977;50.936;6.908;2023-08-17T17:02:03;12.18;;;8.05;;
61096;SDS011;46977;50.936;6.908;2023-08-17T17:05:06;13.90;;;9.43;;
61096;SDS011;46977;50.936;6.908;2023-08-17T17:08:09;11.25;;;8.73;;
61096;SDS011;46977;50.936;6.908;2023-08-17T17:11:12;13.55;;;9.43;;
61096;SDS011;46977;50.936;6.908;2023-08-17T17:14:15;12.68;;;8.32;;
61096;SDS011;46977;50.936;6.908;2023-08-17T17:20:52;11.73;;;8.40;;
61096;SDS011;46977;50.936;6.908;2023-08-17T17:23:55;10.88;;;8.73;;
61096;SDS011;46977;50.936;6.908;2023-08-17T17:26:57;13.77;;;8.43;;
61096;SDS011;46977;50.936;6.908;2023-08-17T17:30:01;11.93;;;8.35;;
61096;SDS011;46977;50.936;6.908;2023-08-17T17:33:04;12.77;;;8.43;;
61096;SDS011;46977;50.936;6.908;2023-08-17T17:36:06;11.93;;;8.18;;
61096;SDS011;46977;50.936;6.908;2023-08-17T17:39:09;13.68;;;8.88;;
61096;SDS011;46977;50.936;6.908;2023-08-17T17:42:11;12.25;;;8.32;;
61096;SDS011;46977;50.936;6.908;2023-08-17T17:45:15;14.80;;;9.60;;
61096;SDS011;46977;50.936;6.908;2023-08-17T17:48:18;14.73;;;9.50;;
61096;SDS011;46977;50.936;6.908;2023-08-17T17:51:20;16.55;;;8.95;;
61096;SDS011;46977;50.936;6.908;2023-08-17T17:54:23;15.48;;;8.93;;
61096;SDS011;46977;50.936;6.908;2023-08-17T17:57:25;13.27;;;8.50;;
61096;SDS011;46977;50.936;6.908;2023-08-17T18:00:29;14.05;;;9.25;;
61096;SDS011;46977;50.936;6.908;2023-08-17T18:03:32;11.90;;;9.48;;
61096;SDS011;46977;50.936;6.908;2023-08-17T18:06:34;12.77;;;9.68;;
61096;SDS011;46977;50.936;6.908;2023-08-17T18:09:37;11.48;;;8.40;;
61096;SDS011;46977;50.936;6.908;2023-08-17T18:12:39;14.15;;;9.77;;
61096;SDS011;46977;50.936;6.908;2023-08-17T18:15:43;13.48;;;9.50;;
61096;SDS011;46977;50.936;6.908;2023-08-17T18:18:45;14.52;;;10.10;;
61096;SDS011;46977;50.936;6.908;2023-08-17T18:21:48;16.90;;;9.82;;